createdAt,value
2022-09-11T00:01:02.197Z,50.26
2022-09-11T00:03:30.086Z,50.99
2022-09-11T00:05:56.838Z,50.53
2022-09-11T00:08:23.364Z,50.69
2022-09-11T00:10:50.137Z,50.99
2022-09-11T00:13:22.526Z,50.59
2022-09-11T00:15:51.105Z,50.57
2022-09-11T00:18:21.843Z,50.40
2022-09-11T00:20:53.384Z,50.68
2022-09-11T00:23:21.808Z,50.59
2022-09-11T00:25:48.996Z,50.58
2022-09-11T00:28:19.841Z,51.67
2022-09-11T00:30:47.497Z,50.87
2022-09-11T00:33:15.704Z,51.28
2022-09-11T00:35:42.699Z,51.43
2022-09-11T00:38:12.098Z,51.74
2022-09-11T00:40:50.361Z,51.29
2022-09-11T00:43:17.813Z,51.30
2022-09-11T00:45:48.527Z,51.53
2022-09-11T00:48:20.360Z,51.54
2022-09-11T00:50:48.159Z,51.47
2022-09-11T00:53:17.926Z,51.43
2022-09-11T00:55:50.946Z,51.00
2022-09-11T00:58:23.786Z,51.04
2022-09-11T01:00:54.027Z,51.41
2022-09-11T01:03:20.733Z,50.74
2022-09-11T01:05:48.336Z,51.23
2022-09-11T01:08:15.305Z,50.82
2022-09-11T01:11:21.694Z,50.84
2022-09-11T01:13:55.122Z,51.21
2022-09-11T01:16:28.425Z,50.95
2022-09-11T01:19:24.490Z,50.45
2022-09-11T01:22:06.220Z,50.57
2022-09-11T01:24:59.990Z,50.65
2022-09-11T01:27:31.114Z,50.86
2022-09-11T01:30:05.427Z,50.83
2022-09-11T01:32:55.515Z,50.49
2022-09-11T01:35:29.371Z,50.64
2022-09-11T01:38:01.789Z,51.13
2022-09-11T01:40:36.813Z,51.60
2022-09-11T01:43:07.220Z,50.98
2022-09-11T01:45:37.272Z,51.05
2022-09-11T01:48:07.819Z,51.29
2022-09-11T01:50:37.037Z,51.32
2022-09-11T01:53:06.721Z,51.34
2022-09-11T01:55:46.331Z,50.90
2022-09-11T01:58:23.053Z,51.31
2022-09-11T02:00:55.564Z,51.19
2022-09-11T02:03:30.106Z,51.35
2022-09-11T02:06:04.740Z,51.00
2022-09-11T02:08:47.218Z,50.93
2022-09-11T02:11:15.292Z,51.43
2022-09-11T02:13:52.356Z,50.81
2022-09-11T02:16:29.924Z,51.00
2022-09-11T02:19:01.736Z,51.41
2022-09-11T02:21:29.046Z,50.82
2022-09-11T02:23:55.963Z,51.34
2022-09-11T02:26:25.899Z,51.25
2022-09-11T02:28:53.778Z,51.28
2022-09-11T02:31:21.609Z,51.88
2022-09-11T02:33:49.515Z,51.81
2022-09-11T02:36:38.454Z,51.39
2022-09-11T02:39:32.771Z,51.11
2022-09-11T02:42:38.328Z,50.98
2022-09-11T02:45:14.783Z,51.59
2022-09-11T02:47:59.700Z,51.47
2022-09-11T02:50:57.012Z,51.50
2022-09-11T02:53:38.781Z,51.98
2022-09-11T02:56:13.214Z,52.35
2022-09-11T02:58:46.859Z,52.36
2022-09-11T03:01:13.519Z,52.45
2022-09-11T03:03:45.277Z,52.84
2022-09-11T03:06:19.046Z,52.60
2022-09-11T03:08:45.821Z,52.52
2022-09-11T03:11:15.366Z,52.71
2022-09-11T03:13:42.139Z,53.63
2022-09-11T03:16:08.733Z,53.02
2022-09-11T03:18:35.749Z,52.97
2022-09-11T03:21:03.776Z,53.59
2022-09-11T03:23:30.957Z,53.83
2022-09-11T03:25:58.783Z,53.55
2022-09-11T03:28:25.361Z,53.71
2022-09-11T03:30:55.077Z,53.87
2022-09-11T03:33:21.872Z,53.90
2022-09-11T03:35:48.336Z,54.04
2022-09-11T03:38:15.808Z,51.88
2022-09-11T03:40:43.598Z,53.99
2022-09-11T03:43:12.395Z,54.52
2022-09-11T03:45:39.459Z,54.30
2022-09-11T03:48:06.622Z,54.53
2022-09-11T03:50:34.308Z,55.14
2022-09-11T03:53:01.020Z,54.93
2022-09-11T03:55:27.601Z,54.85
2022-09-11T03:57:54.191Z,55.08
2022-09-11T04:00:20.826Z,55.47
2022-09-11T04:02:47.343Z,55.55
2022-09-11T04:05:13.805Z,52.58
2022-09-11T04:07:40.306Z,55.09
2022-09-11T04:10:06.900Z,52.56
2022-09-11T04:12:33.826Z,55.11
2022-09-11T04:15:00.385Z,55.49
2022-09-11T04:17:29.690Z,55.58
2022-09-11T04:19:56.249Z,56.21
2022-09-11T04:22:24.414Z,55.96
2022-09-11T04:24:52.059Z,56.42
2022-09-11T04:27:19.074Z,56.02
2022-09-11T04:29:46.245Z,55.92
2022-09-11T04:32:13.339Z,56.35
2022-09-11T04:34:39.878Z,56.05
2022-09-11T04:37:06.380Z,56.01
2022-09-11T04:39:34.229Z,53.42
2022-09-11T04:42:02.093Z,55.89
2022-09-11T04:44:29.278Z,55.77
2022-09-11T04:46:56.397Z,56.30
2022-09-11T04:49:23.435Z,55.86
2022-09-11T04:51:50.626Z,56.36
2022-09-11T04:54:21.397Z,56.08
2022-09-11T04:56:48.965Z,55.76
2022-09-11T04:59:22.428Z,55.72
2022-09-11T05:01:49.382Z,55.79
2022-09-11T05:04:21.720Z,55.71
2022-09-11T05:06:49.543Z,55.91
2022-09-11T05:09:17.799Z,56.08
2022-09-11T05:11:44.376Z,56.08
2022-09-11T05:14:11.778Z,56.30
2022-09-11T05:16:39.829Z,55.98
2022-09-11T05:19:06.732Z,56.20
2022-09-11T05:21:33.779Z,55.44
2022-09-11T05:24:02.102Z,55.65
2022-09-11T05:26:31.981Z,55.48
2022-09-11T05:29:00.808Z,55.89
2022-09-11T05:31:29.140Z,55.37
2022-09-11T05:33:56.632Z,55.55
2022-09-11T05:36:26.393Z,55.05
2022-09-11T05:38:53.717Z,55.54
2022-09-11T05:41:21.189Z,55.42
2022-09-11T05:43:47.865Z,55.49
2022-09-11T05:46:19.069Z,55.00
2022-09-11T05:48:45.870Z,54.98
2022-09-11T05:51:15.781Z,55.42
2022-09-11T05:53:42.546Z,55.14
2022-09-11T05:56:12.921Z,55.24
2022-09-11T05:58:39.725Z,55.10
2022-09-11T06:01:17.760Z,54.71
2022-09-11T06:03:45.269Z,54.85
2022-09-11T06:06:12.893Z,55.14
2022-09-11T06:08:43.273Z,54.84
2022-09-11T06:11:10.778Z,54.95
2022-09-11T06:13:39.657Z,55.08
2022-09-11T06:16:18.789Z,54.54
2022-09-11T06:18:49.586Z,55.15
2022-09-11T06:21:20.400Z,55.05
2022-09-11T06:23:48.783Z,55.24
2022-09-11T06:26:17.302Z,55.26
2022-09-11T06:28:44.147Z,55.20
2022-09-11T06:31:12.978Z,55.02
2022-09-11T06:33:41.046Z,55.15
2022-09-11T06:36:11.159Z,55.36
2022-09-11T06:38:40.561Z,55.31
2022-09-11T06:41:12.826Z,55.08
2022-09-11T06:43:40.212Z,55.21
2022-09-11T06:46:19.133Z,54.35
2022-09-11T06:48:47.908Z,55.10
2022-09-11T06:51:20.282Z,54.46
2022-09-11T06:53:48.923Z,55.01
2022-09-11T06:56:17.757Z,54.41
2022-09-11T06:58:45.415Z,54.41
2022-09-11T07:01:17.504Z,54.59
2022-09-11T07:03:45.501Z,54.60
2022-09-11T07:06:16.837Z,54.23
2022-09-11T07:08:44.090Z,54.24
2022-09-11T07:11:14.305Z,54.48
2022-09-11T07:13:41.108Z,54.47
2022-09-11T07:16:09.882Z,54.34
2022-09-11T07:18:41.799Z,54.17
2022-09-11T07:21:18.509Z,53.90
2022-09-11T07:23:49.532Z,54.29
2022-09-11T07:26:17.109Z,54.41
2022-09-11T07:28:43.663Z,54.34
2022-09-11T07:31:20.713Z,54.01
2022-09-11T07:33:49.440Z,54.24
2022-09-11T07:36:27.392Z,53.93
2022-09-11T07:38:55.169Z,54.73
2022-09-11T07:41:23.616Z,54.36
2022-09-11T07:43:55.912Z,54.42
2022-09-11T07:46:24.438Z,54.18
2022-09-11T07:48:50.964Z,54.47
2022-09-11T07:51:19.096Z,53.80
2022-09-11T07:53:51.045Z,53.97
2022-09-11T07:56:20.624Z,54.38
2022-09-11T07:58:48.055Z,54.05
2022-09-11T08:01:17.396Z,53.96
2022-09-11T08:03:45.002Z,54.54
2022-09-11T08:06:14.796Z,55.11
2022-09-11T08:08:43.704Z,55.04
2022-09-11T08:11:16.459Z,55.01
2022-09-11T08:13:43.732Z,55.11
2022-09-11T08:16:10.520Z,55.52
2022-09-11T08:18:37.268Z,56.08
2022-09-11T08:21:13.313Z,55.11
2022-09-11T08:23:42.171Z,55.45
2022-09-11T08:26:17.640Z,55.43
2022-09-11T08:28:45.106Z,55.68
2022-09-11T08:31:13.252Z,55.57
2022-09-11T08:33:39.933Z,56.05
2022-09-11T08:36:10.197Z,56.00
2022-09-11T08:38:38.030Z,56.29
2022-09-11T08:41:36.835Z,55.30
2022-09-11T08:44:09.048Z,56.26
2022-09-11T08:46:39.949Z,56.23
2022-09-11T08:49:26.186Z,55.38
2022-09-11T08:52:01.034Z,56.62
2022-09-11T08:54:31.991Z,56.56
2022-09-11T08:57:16.785Z,55.99
2022-09-11T08:59:54.079Z,56.89
2022-09-11T09:02:42.106Z,55.83
2022-09-11T09:05:20.550Z,56.59
2022-09-11T09:07:56.341Z,56.36
2022-09-11T09:10:45.077Z,56.46
2022-09-11T09:13:56.286Z,55.79
2022-09-11T09:16:46.422Z,55.77
2022-09-11T09:19:25.626Z,55.96
2022-09-11T09:22:19.114Z,56.25
2022-09-11T09:24:53.787Z,56.38
2022-09-11T09:27:29.103Z,56.33
2022-09-11T09:30:02.235Z,56.14
2022-09-11T09:32:40.868Z,55.86
2022-09-11T09:35:21.340Z,55.79
2022-09-11T09:37:51.672Z,56.23
2022-09-11T09:40:19.162Z,56.07
2022-09-11T09:42:58.687Z,55.89
2022-09-11T09:45:58.586Z,55.89
2022-09-11T09:48:27.896Z,56.45
2022-09-11T09:50:57.684Z,56.16
2022-09-11T09:53:27.625Z,55.69
2022-09-11T09:55:56.920Z,56.39
2022-09-11T09:58:27.122Z,55.65
2022-09-11T10:00:53.622Z,55.64
2022-09-11T10:03:24.191Z,54.31
2022-09-11T10:05:53.956Z,54.70
2022-09-11T10:08:34.819Z,54.76
2022-09-11T10:11:04.482Z,55.28
2022-09-11T10:13:38.257Z,54.64
2022-09-11T10:16:19.450Z,55.22
2022-09-11T10:18:47.175Z,54.86
2022-09-11T10:21:15.016Z,55.38
2022-09-11T10:23:47.540Z,55.49
2022-09-11T10:26:26.763Z,55.13
2022-09-11T10:28:55.000Z,55.43
2022-09-11T10:31:22.920Z,55.23
2022-09-11T10:33:56.595Z,55.69
2022-09-11T10:36:25.634Z,55.05
2022-09-11T10:38:53.020Z,54.91
2022-09-11T10:41:23.683Z,54.51
2022-09-11T10:44:02.183Z,54.01
2022-09-11T10:46:39.179Z,52.79
2022-09-11T10:49:05.617Z,53.74
2022-09-11T10:51:39.206Z,53.79
2022-09-11T10:54:21.446Z,53.34
2022-09-11T10:56:57.878Z,53.12
2022-09-11T10:59:27.611Z,52.75
2022-09-11T11:01:54.759Z,53.45
2022-09-11T11:04:22.936Z,53.53
2022-09-11T11:06:52.240Z,52.84
2022-09-11T11:09:31.339Z,53.37
2022-09-11T11:12:17.408Z,52.63
2022-09-11T11:15:03.716Z,52.80
2022-09-11T11:17:40.679Z,53.17
2022-09-11T11:20:10.304Z,52.76
2022-09-11T11:22:58.704Z,53.04
2022-09-11T11:25:31.414Z,52.76
2022-09-11T11:28:34.204Z,52.78
2022-09-11T11:31:06.737Z,52.21
2022-09-11T11:33:42.913Z,52.07
2022-09-11T11:36:16.901Z,52.22
2022-09-11T11:39:07.729Z,52.66
2022-09-11T11:41:44.613Z,52.21
2022-09-11T11:44:12.945Z,52.29
2022-09-11T11:46:46.116Z,51.66
2022-09-11T11:49:19.521Z,51.72
2022-09-11T11:52:13.182Z,52.24
2022-09-11T11:54:49.607Z,51.01
2022-09-11T11:57:22.469Z,51.32
2022-09-11T12:00:10.035Z,51.11
2022-09-11T12:02:50.473Z,51.02
2022-09-11T12:05:24.901Z,51.16
2022-09-11T12:07:51.945Z,51.05
2022-09-11T12:10:22.537Z,50.75
2022-09-11T12:12:54.189Z,50.61
2022-09-11T12:15:25.549Z,50.92
2022-09-11T12:18:01.851Z,50.74
2022-09-11T12:20:32.800Z,50.39
2022-09-11T12:23:00.783Z,49.67
2022-09-11T12:25:31.206Z,49.42
2022-09-11T12:28:19.938Z,49.89
2022-09-11T12:31:24.961Z,49.85
2022-09-11T12:33:54.582Z,48.34
2022-09-11T12:36:33.339Z,49.41
2022-09-11T12:39:03.998Z,48.52
2022-09-11T12:41:35.692Z,48.97
2022-09-11T12:44:04.972Z,48.72
2022-09-11T12:46:31.414Z,48.68
2022-09-11T12:49:21.994Z,49.05
2022-09-11T12:51:55.239Z,49.22
2022-09-11T12:54:24.224Z,49.33
2022-09-11T12:56:59.328Z,49.76
2022-09-11T12:59:31.975Z,49.26
2022-09-11T13:01:59.822Z,48.61
2022-09-11T13:04:31.312Z,48.77
2022-09-11T13:07:04.141Z,48.81
2022-09-11T13:09:49.708Z,49.23
2022-09-11T13:12:19.173Z,48.78
2022-09-11T13:14:58.509Z,48.94
2022-09-11T13:17:45.346Z,49.04
2022-09-11T13:20:22.937Z,49.56
2022-09-11T13:22:56.167Z,48.58
2022-09-11T13:25:28.091Z,48.50
2022-09-11T13:27:59.637Z,48.63
2022-09-11T13:30:27.027Z,48.62
2022-09-11T13:33:07.810Z,49.23
2022-09-11T13:35:40.383Z,49.06
2022-09-11T13:38:13.117Z,48.27
2022-09-11T13:41:14.318Z,49.29
2022-09-11T13:43:48.608Z,48.32
2022-09-11T13:46:15.323Z,48.15
2022-09-11T13:48:43.590Z,47.01
2022-09-11T13:51:15.123Z,47.18
2022-09-11T13:53:44.802Z,46.95
2022-09-11T13:56:47.354Z,48.07
2022-09-11T13:59:39.450Z,46.90
2022-09-11T14:02:33.390Z,46.75
2022-09-11T14:05:27.240Z,47.32
2022-09-11T14:08:07.592Z,45.92
2022-09-11T14:11:00.891Z,46.08
2022-09-11T14:13:35.973Z,44.39
2022-09-11T14:16:14.435Z,44.69
2022-09-11T14:18:46.303Z,43.81
2022-09-11T14:21:17.175Z,43.90
2022-09-11T14:23:48.301Z,43.39
2022-09-11T14:26:16.051Z,43.10
2022-09-11T14:28:51.691Z,44.83
2022-09-11T14:31:38.965Z,44.76
2022-09-11T14:34:05.327Z,45.40
2022-09-11T14:36:32.349Z,42.68
2022-09-11T14:39:00.046Z,42.31
2022-09-11T14:41:26.558Z,42.98
2022-09-11T14:43:53.232Z,42.68
2022-09-11T14:46:19.753Z,42.92
2022-09-11T14:48:46.901Z,43.28
2022-09-11T14:51:13.916Z,43.10
2022-09-11T14:53:43.675Z,43.50
2022-09-11T14:56:10.464Z,42.68
2022-09-11T14:58:36.981Z,42.46
2022-09-11T15:01:03.572Z,42.81
2022-09-11T15:03:31.083Z,42.27
2022-09-11T15:05:58.706Z,42.33
2022-09-11T15:08:25.912Z,42.29
2022-09-11T15:10:53.635Z,42.26
2022-09-11T15:13:21.276Z,42.07
2022-09-11T15:15:47.917Z,42.24
2022-09-11T15:18:14.785Z,42.23
2022-09-11T15:20:41.313Z,41.85
2022-09-11T15:23:07.921Z,41.87
2022-09-11T15:25:34.421Z,42.02
2022-09-11T15:28:01.281Z,42.19
2022-09-11T15:30:28.039Z,42.13
2022-09-11T15:32:55.023Z,42.31
2022-09-11T15:35:23.262Z,42.15
2022-09-11T15:37:50.840Z,42.33
2022-09-11T15:40:18.160Z,41.96
2022-09-11T15:42:45.089Z,42.19
2022-09-11T15:45:12.963Z,42.39
2022-09-11T16:12:58.899Z,44.45
2022-09-11T16:15:25.594Z,42.37
2022-09-11T16:17:51.998Z,41.77
2022-09-11T16:20:18.513Z,41.40
2022-09-11T16:22:45.512Z,41.40
2022-09-11T16:25:12.166Z,41.97
2022-09-11T16:27:45.541Z,41.99
2022-09-11T16:33:02.399Z,42.34
2022-09-11T16:35:30.656Z,41.98
2022-09-11T16:37:57.604Z,42.03
2022-09-11T16:40:24.017Z,42.15
2022-09-11T16:42:50.471Z,42.04
2022-09-11T16:45:17.021Z,42.56
2022-09-11T16:47:43.793Z,42.28
2022-09-11T16:50:10.318Z,42.56
2022-09-11T16:52:38.063Z,42.49
2022-09-11T16:55:07.047Z,42.26
2022-09-11T16:57:34.535Z,42.68
2022-09-11T17:00:01.018Z,42.31
2022-09-11T17:02:27.516Z,42.77
2022-09-11T17:04:53.963Z,42.63
2022-09-11T17:07:20.859Z,43.17
2022-09-11T17:09:47.403Z,43.23
2022-09-11T17:12:15.253Z,43.68
2022-09-11T17:14:41.678Z,44.09
2022-09-11T17:17:10.399Z,43.68
2022-09-11T17:19:36.840Z,44.80
2022-09-11T17:22:03.923Z,44.11
2022-09-11T17:24:31.909Z,44.25
2022-09-11T17:26:58.380Z,45.10
2022-09-11T17:29:24.884Z,44.75
2022-09-11T17:32:05.142Z,46.33
2022-09-11T17:34:37.836Z,45.29
2022-09-11T17:37:04.732Z,45.45
2022-09-11T17:39:31.240Z,45.21
2022-09-11T17:41:59.981Z,45.53
2022-09-11T17:44:26.443Z,45.73
2022-09-11T17:46:52.896Z,46.01
2022-09-11T17:49:21.030Z,46.79
2022-09-11T17:51:47.485Z,48.17
2022-09-11T17:54:13.932Z,48.07
2022-09-11T17:56:42.378Z,48.02
2022-09-11T17:59:09.294Z,48.02
2022-09-11T18:01:35.886Z,48.38
2022-09-11T18:04:02.720Z,48.78
2022-09-11T18:06:36.188Z,48.73
2022-09-11T18:09:13.796Z,48.96
2022-09-11T18:11:42.749Z,49.57
2022-09-11T18:14:10.407Z,49.03
2022-09-11T18:16:37.793Z,50.24
2022-09-11T18:19:05.527Z,49.33
2022-09-11T18:21:38.323Z,47.35
2022-09-11T18:24:06.420Z,49.56
2022-09-11T18:26:39.479Z,49.96
2022-09-11T18:29:10.470Z,48.01
2022-09-11T18:31:40.020Z,49.81
2022-09-11T18:37:30.696Z,50.72
2022-09-11T18:39:57.264Z,49.53
2022-09-11T18:42:23.926Z,50.94
2022-09-11T18:44:50.498Z,50.79
2022-09-11T18:47:20.718Z,51.47
2022-09-11T18:49:51.119Z,50.70
2022-09-11T18:52:21.563Z,50.51
2022-09-11T18:54:50.607Z,51.01
2022-09-11T18:57:17.185Z,49.68
2022-09-11T18:59:48.842Z,49.71
2022-09-11T19:02:16.218Z,50.63
2022-09-11T19:04:45.646Z,51.74
2022-09-11T19:07:15.978Z,50.26
2022-09-11T19:09:45.786Z,50.81
2022-09-11T19:12:12.688Z,51.15
2022-09-11T19:14:42.337Z,50.47
2022-09-11T19:17:08.829Z,51.51
2022-09-11T19:19:35.598Z,52.18
2022-09-11T19:22:02.042Z,52.31
2022-09-11T19:24:30.088Z,49.52
2022-09-11T19:26:57.135Z,51.28
2022-09-11T19:29:23.571Z,52.31
2022-09-11T19:31:50.055Z,49.38
2022-09-11T19:34:16.959Z,50.37
2022-09-11T19:36:43.518Z,50.44
2022-09-11T19:39:15.445Z,51.82
2022-09-11T19:41:42.074Z,52.56
2022-09-11T19:44:15.531Z,52.88
2022-09-11T19:46:43.017Z,52.39
2022-09-11T19:49:13.639Z,52.32
2022-09-11T19:51:42.506Z,52.25
2022-09-11T19:54:14.495Z,52.40
2022-09-11T19:56:42.497Z,51.24
2022-09-11T19:59:09.106Z,52.41
2022-09-11T20:01:35.980Z,52.42
2022-09-11T20:04:08.116Z,51.65
2022-09-11T20:06:37.482Z,51.61
2022-09-11T20:11:56.018Z,53.89
2022-09-11T20:14:25.640Z,53.44
2022-09-11T20:16:52.196Z,53.72
2022-09-11T20:19:21.010Z,53.69
2022-09-11T20:21:47.529Z,53.85
2022-09-11T20:24:17.556Z,50.88
2022-09-11T20:26:46.945Z,53.46
2022-09-11T20:29:15.978Z,53.81
2022-09-11T20:31:48.731Z,53.90
2022-09-11T20:34:19.838Z,53.31
2022-09-11T20:36:47.451Z,53.29
2022-09-11T20:39:15.437Z,52.45
2022-09-11T20:41:45.948Z,51.73
2022-09-11T20:44:12.477Z,53.95
2022-09-11T20:46:39.020Z,50.82
2022-09-11T20:49:06.036Z,52.66
2022-09-11T20:51:33.555Z,53.26
2022-09-11T20:54:02.749Z,52.69
2022-09-11T20:56:29.739Z,53.70
2022-09-11T20:58:56.684Z,54.75
2022-09-11T21:01:27.546Z,54.27
2022-09-11T21:03:56.592Z,55.00
2022-09-11T21:06:30.274Z,54.27
2022-09-11T21:09:06.506Z,55.61
2022-09-11T21:11:33.448Z,57.07
2022-09-11T21:14:00.598Z,56.81
2022-09-11T21:16:27.179Z,57.10
2022-09-11T21:18:56.432Z,56.86
2022-09-11T21:21:23.821Z,56.61
2022-09-11T21:23:54.371Z,55.12
2022-09-11T21:26:20.891Z,55.89
2022-09-11T21:28:47.435Z,54.90
2022-09-11T21:31:14.019Z,54.52
2022-09-11T21:33:41.333Z,54.41
2022-09-11T21:36:07.999Z,53.82
2022-09-11T21:38:36.206Z,53.22
2022-09-11T21:41:04.953Z,53.35
2022-09-11T21:43:31.665Z,53.11
2022-09-11T21:45:58.395Z,52.62
2022-09-11T21:48:24.974Z,51.96
2022-09-11T21:50:51.775Z,51.55
2022-09-11T21:53:19.265Z,51.94
2022-09-11T21:55:47.218Z,51.47
2022-09-11T21:58:17.150Z,51.31
2022-09-11T22:00:44.463Z,51.20
2022-09-11T22:03:12.731Z,50.94
2022-09-11T22:05:43.498Z,51.31
2022-09-11T22:08:14.821Z,50.91
2022-09-11T22:10:46.773Z,51.00
2022-09-11T22:13:13.690Z,50.62
2022-09-11T22:15:48.517Z,50.74
2022-09-11T22:18:16.107Z,50.47
2022-09-11T22:20:43.075Z,50.33
2022-09-11T22:23:15.070Z,50.30
2022-09-11T22:25:41.799Z,50.50
2022-09-11T22:28:08.780Z,50.12
2022-09-11T22:30:35.344Z,50.13
2022-09-11T22:33:02.020Z,49.97
2022-09-11T22:35:28.910Z,50.01
2022-09-11T22:37:55.616Z,49.88
2022-09-11T22:40:22.132Z,49.75
2022-09-11T22:42:49.916Z,50.14
2022-09-11T22:45:17.211Z,49.71
2022-09-11T22:47:43.748Z,50.40
2022-09-11T22:50:10.388Z,49.86
2022-09-11T22:52:37.463Z,49.47
2022-09-11T22:55:06.139Z,49.81
2022-09-11T22:57:35.011Z,49.68
2022-09-11T23:00:02.724Z,49.23
2022-09-11T23:02:29.292Z,49.39
2022-09-11T23:05:14.471Z,49.60
2022-09-11T23:07:41.180Z,49.20
2022-09-11T23:10:09.778Z,49.13
2022-09-11T23:12:37.349Z,49.29
2022-09-11T23:15:04.579Z,49.44
2022-09-11T23:17:31.057Z,49.13
2022-09-11T23:19:57.444Z,49.21
2022-09-11T23:22:24.150Z,49.26
2022-09-11T23:24:50.608Z,49.35
2022-09-11T23:27:17.014Z,49.11
2022-09-11T23:29:43.482Z,49.18
2022-09-11T23:32:09.963Z,48.78
2022-09-11T23:34:36.424Z,49.30
2022-09-11T23:37:02.891Z,49.06
2022-09-11T23:39:29.350Z,48.87
2022-09-11T23:41:55.735Z,48.96
2022-09-11T23:44:22.225Z,48.63
2022-09-11T23:46:48.643Z,48.58
2022-09-11T23:49:15.448Z,49.19
2022-09-11T23:51:42.702Z,48.69
2022-09-11T23:54:09.281Z,49.48
2022-09-11T23:56:35.759Z,49.26
2022-09-11T23:59:02.177Z,48.99
